Time;durP1;ratioP1;P1;durP2;ratioP2;P2;SDS_P1;SDS_P2;PMS_P1;PMS_P2;Temp;Humidity;BMP_temperature;BMP_pressure;BME280_temperature;BME280_humidity;BME280_pressure;Samples;Min_cycle;Max_cycle;Signal;HPM_P1;HPM_P2
2020/12/28 00:00:21;;;;;;;14.90;13.40;;;;;;;8.59;100.00;96006.44;5073450;28;20270;-88
2020/12/28 00:02:48;;;;;;;14.00;12.60;;;;;;;8.60;100.00;95997.59;5073110;28;20677;-87
2020/12/28 00:05:15;;;;;;;12.60;10.93;;;;;;;8.65;100.00;95986.66;5073562;28;20283;-88
2020/12/28 00:07:42;;;;;;;10.70;9.70;;;;;;;8.66;100.00;95991.75;5073695;28;20339;-90
2020/12/28 00:10:12;;;;;;;9.97;8.97;;;;;;;8.69;100.00;95988.81;5082218;28;20204;-89
2020/12/28 00:12:48;;;;;;;11.57;9.53;;;;;;;8.73;100.00;96000.66;5084515;28;20215;-87
2020/12/28 00:15:20;;;;;;;9.80;8.80;;;;;;;8.72;100.00;95993.75;5073557;28;20197;-88
2020/12/28 00:17:48;;;;;;;9.03;8.23;;;;;;;8.75;100.00;95992.63;5073566;28;20197;-88
2020/12/28 00:20:16;;;;;;;8.13;7.27;;;;;;;8.76;100.00;95992.50;5073136;28;20189;-90
2020/12/28 00:22:43;;;;;;;9.13;7.97;;;;;;;8.77;100.00;95991.50;5073383;28;20197;-89
2020/12/28 00:25:10;;;;;;;7.17;6.47;;;;;;;8.80;100.00;95987.75;5072782;28;20294;-88
2020/12/28 00:27:37;;;;;;;6.90;5.70;;;;;;;8.82;100.00;95985.78;5073124;28;20311;-89
2020/12/28 00:30:06;;;;;;;8.07;6.87;;;;;;;8.85;100.00;95984.66;5073119;28;20233;-89
2020/12/28 00:32:34;;;;;;;8.00;6.20;;;;;;;8.85;100.00;95982.03;5072508;28;20258;-88
2020/12/28 00:35:01;;;;;;;7.37;6.67;;;;;;;8.84;100.00;95983.03;5072765;28;20269;-88
2020/12/28 00:37:28;;;;;;;8.47;7.63;;;;;;;8.88;100.00;95964.22;5073214;28;20260;-89
2020/12/28 00:39:55;;;;;;;9.00;8.10;;;;;;;8.88;100.00;95964.22;5073037;28;20228;-88
2020/12/28 00:42:22;;;;;;;11.70;10.60;;;;;;;8.88;100.00;95979.94;5073315;28;20276;-89
2020/12/28 00:44:49;;;;;;;7.67;6.97;;;;;;;8.87;100.00;95972.22;5073217;28;20197;-89
2020/12/28 00:47:17;;;;;;;10.13;9.13;;;;;;;8.86;100.00;95966.16;5073286;28;20199;-87
2020/12/28 00:49:44;;;;;;;7.77;7.07;;;;;;;8.88;100.00;95976.50;5073961;28;20289;-87
2020/12/28 00:52:10;;;;;;;5.90;5.40;;;;;;;8.84;100.00;95969.94;5073622;28;20204;-89
2020/12/28 00:54:37;;;;;;;8.17;7.07;;;;;;;8.82;100.00;95968.25;5073230;28;20225;-88
2020/12/28 00:57:04;;;;;;;6.77;6.17;;;;;;;8.85;100.00;95968.94;5073586;28;20223;-88
2020/12/28 00:59:31;;;;;;;8.23;7.40;;;;;;;8.85;100.00;95974.19;5072923;28;20743;-87
2020/12/28 01:01:59;;;;;;;7.93;6.83;;;;;;;8.85;100.00;95976.81;5073178;28;20197;-89
2020/12/28 01:04:27;;;;;;;7.50;6.80;;;;;;;8.84;100.00;95962.06;5073074;28;20227;-88
2020/12/28 01:06:54;;;;;;;9.90;7.53;;;;;;;8.86;100.00;95950.44;5072950;28;20193;-87
2020/12/28 01:09:21;;;;;;;9.47;8.43;;;;;;;8.85;100.00;95951.41;5073096;28;20573;-88
2020/12/28 01:11:47;;;;;;;8.30;7.60;;;;;;;8.87;100.00;95946.00;5072774;28;20204;-88
2020/12/28 01:14:14;;;;;;;8.33;6.90;;;;;;;8.85;100.00;95930.44;5072953;28;20362;-87
2020/12/28 01:16:44;;;;;;;7.27;6.57;;;;;;;8.86;100.00;95926.84;5072742;28;20208;-89
2020/12/28 01:19:11;;;;;;;8.90;8.10;;;;;;;8.82;100.00;95939.44;5072926;28;20263;-88
2020/12/28 01:21:39;;;;;;;8.30;7.40;;;;;;;8.85;100.00;95938.31;5072870;28;20722;-87
2020/12/28 01:24:06;;;;;;;8.60;7.90;;;;;;;8.85;100.00;95946.16;5072541;28;20193;-87
2020/12/28 01:26:33;;;;;;;8.80;8.00;;;;;;;8.85;100.00;95940.94;5071897;28;20320;-88
2020/12/28 01:29:00;;;;;;;9.03;8.23;;;;;;;8.86;100.00;95933.88;5072447;28;20220;-88
2020/12/28 01:31:27;;;;;;;9.43;8.63;;;;;;;8.91;100.00;95947.34;5075740;28;20239;-87
2020/12/28 01:33:53;;;;;;;10.37;9.23;;;;;;;8.92;100.00;95955.06;5076259;28;20225;-88
2020/12/28 01:36:20;;;;;;;9.60;8.70;;;;;;;8.92;100.00;95935.88;5075827;28;20203;-88
2020/12/28 01:38:48;;;;;;;7.97;6.53;;;;;;;8.91;100.00;95915.91;5075880;28;20197;-89
2020/12/28 01:41:15;;;;;;;6.67;6.07;;;;;;;8.95;100.00;95917.22;5076175;28;20197;-88
2020/12/28 01:43:42;;;;;;;6.50;5.90;;;;;;;8.93;100.00;95932.28;5075992;28;20197;-88
2020/12/28 01:46:09;;;;;;;6.93;6.23;;;;;;;8.97;100.00;95934.44;5076337;28;20299;-87
2020/12/28 01:48:36;;;;;;;7.67;6.87;;;;;;;8.95;100.00;95946.06;5076485;28;20204;-88
2020/12/28 01:51:03;;;;;;;6.40;5.90;;;;;;;8.93;100.00;95940.16;5075696;28;20246;-88
2020/12/28 01:53:31;;;;;;;7.43;6.73;;;;;;;8.95;100.00;95930.34;5075807;28;20221;-88
2020/12/28 01:56:03;;;;;;;9.10;8.30;;;;;;;8.93;100.00;95929.66;5075540;28;20197;-88
2020/12/28 01:58:31;;;;;;;8.87;8.13;;;;;;;8.89;100.00;95918.66;5075903;28;20277;-88
2020/12/28 02:00:59;;;;;;;7.87;6.53;;;;;;;8.90;100.00;95924.72;5075662;28;20206;-89
2020/12/28 02:03:27;;;;;;;9.67;8.67;;;;;;;8.87;100.00;95927.66;5075462;28;20189;-87
2020/12/28 02:05:54;;;;;;;10.30;9.23;;;;;;;8.88;100.00;95926.69;5075430;28;20670;-89
2020/12/28 02:08:21;;;;;;;11.27;9.57;;;;;;;8.89;100.00;95917.84;5075347;28;20197;-88
2020/12/28 02:10:48;;;;;;;10.27;9.27;;;;;;;8.86;100.00;95918.16;5075614;28;20197;-89
2020/12/28 02:13:16;;;;;;;10.73;9.80;;;;;;;8.87;100.00;95914.56;5075168;28;20260;-89
2020/12/28 02:15:43;;;;;;;10.07;9.07;;;;;;;8.84;100.00;95917.50;5075659;28;20207;-88
2020/12/28 02:18:09;;;;;;;11.10;10.10;;;;;;;8.85;100.00;95914.72;5075831;28;20579;-88
2020/12/28 02:20:36;;;;;;;10.50;9.50;;;;;;;8.82;100.00;95915.03;5075718;28;20225;-88
2020/12/28 02:23:04;;;;;;;11.77;10.57;;;;;;;8.85;100.00;95913.91;5075328;28;20201;-90
2020/12/28 02:25:31;;;;;;;11.77;10.67;;;;;;;8.88;100.00;95895.25;5074991;28;20237;-88
2020/12/28 02:27:58;;;;;;;9.70;8.67;;;;;;;8.78;100.00;95890.13;5075181;28;20193;-89
2020/12/28 02:30:25;;;;;;;10.37;9.47;;;;;;;8.79;100.00;95879.47;5075488;28;20210;-88
2020/12/28 02:32:51;;;;;;;10.23;9.30;;;;;;;8.79;100.00;95887.34;5074979;28;20232;-88
2020/12/28 02:35:18;;;;;;;10.47;9.33;;;;;;;8.80;100.00;95890.81;5074886;28;20208;-87
2020/12/28 02:37:45;;;;;;;8.50;7.63;;;;;;;8.78;100.00;95882.25;5074986;28;20211;-87
2020/12/28 02:40:13;;;;;;;10.63;9.63;;;;;;;8.75;100.00;95885.19;5074753;28;20252;-88
2020/12/28 02:42:40;;;;;;;13.87;11.67;;;;;;;8.74;100.00;95879.13;5074853;28;20205;-87
2020/12/28 02:45:07;;;;;;;12.60;10.03;;;;;;;8.72;100.00;95860.13;5074754;28;20259;-89
2020/12/28 02:47:33;;;;;;;15.73;13.50;;;;;;;8.74;100.00;95858.19;5074539;28;20288;-88
2020/12/28 02:50:00;;;;;;;10.37;9.33;;;;;;;8.70;100.00;95862.09;5075131;28;20200;-87
2020/12/28 02:52:27;;;;;;;32.93;11.13;;;;;;;8.72;100.00;95857.50;5075095;28;20204;-87
2020/12/28 02:54:54;;;;;;;39.93;13.20;;;;;;;8.71;100.00;95847.19;5074787;28;20647;-88
2020/12/28 02:57:22;;;;;;;27.40;13.87;;;;;;;8.71;100.00;95847.19;5074284;28;20201;-87
2020/12/28 02:59:49;;;;;;;16.27;10.53;;;;;;;8.70;100.00;95853.41;5074293;28;20588;-88
2020/12/28 03:02:15;;;;;;;24.93;11.00;;;;;;;8.71;100.00;95865.53;5074666;28;20581;-87
2020/12/28 03:04:42;;;;;;;10.13;9.03;;;;;;;8.68;100.00;95860.59;5074272;28;20288;-89
2020/12/28 03:07:09;;;;;;;47.20;17.70;;;;;;;8.68;100.00;95861.41;5074398;28;20208;-88
2020/12/28 03:09:36;;;;;;;68.37;15.30;;;;;;;8.69;100.00;95855.19;5074488;28;20260;-87
2020/12/28 03:12:03;;;;;;;82.23;20.40;;;;;;;8.67;100.00;95853.72;5074337;28;20641;-87
2020/12/28 03:14:30;;;;;;;49.60;10.67;;;;;;;8.66;100.00;95855.53;5074042;28;20217;-88
2020/12/28 03:16:57;;;;;;;15.43;12.97;;;;;;;8.66;100.00;95859.91;5074106;28;20232;-88
2020/12/28 03:19:24;;;;;;;11.40;10.30;;;;;;;8.67;100.00;95858.97;5074291;28;20232;-89
2020/12/28 03:21:51;;;;;;;15.60;11.20;;;;;;;8.68;100.00;95856.19;5074670;28;20258;-87
2020/12/28 03:24:18;;;;;;;12.27;10.23;;;;;;;8.69;100.00;95868.28;5074086;28;20198;-87
2020/12/28 03:26:44;;;;;;;4.60;4.27;;;;;;;8.68;100.00;95864.03;5073864;28;20321;-87
2020/12/28 03:29:11;;;;;;;12.43;9.67;;;;;;;8.65;100.00;95861.72;5074020;28;20193;-88
2020/12/28 03:31:39;;;;;;;12.47;8.47;;;;;;;8.67;100.00;95870.25;5074098;28;20197;-87
2020/12/28 03:34:06;;;;;;;10.97;8.37;;;;;;;8.68;100.00;95877.13;5073772;28;20229;-87
2020/12/28 03:36:33;;;;;;;13.23;10.00;;;;;;;8.64;100.00;95875.00;5073567;28;20232;-87
2020/12/28 03:39:00;;;;;;;9.50;8.57;;;;;;;8.63;100.00;95889.91;5073825;28;20583;-88
2020/12/28 03:41:27;;;;;;;10.50;9.60;;;;;;;8.63;100.00;95884.66;5073939;28;20201;-87
2020/12/28 03:43:54;;;;;;;12.87;9.53;;;;;;;8.63;100.00;95892.50;5073317;28;20276;-87
2020/12/28 03:46:20;;;;;;;11.70;8.27;;;;;;;8.63;100.00;95900.38;5073468;28;20193;-87
2020/12/28 03:48:48;;;;;;;6.97;6.30;;;;;;;8.63;100.00;95908.22;5073294;28;20197;-87
2020/12/28 03:51:15;;;;;;;11.30;8.03;;;;;;;8.61;100.00;95904.94;5073269;28;20193;-87
2020/12/28 03:53:42;;;;;;;18.73;10.77;;;;;;;8.58;100.00;95902.63;5072467;28;20228;-88
2020/12/28 03:56:09;;;;;;;8.63;7.83;;;;;;;8.59;100.00;95883.31;5073718;28;20233;-87
2020/12/28 03:58:36;;;;;;;9.77;8.83;;;;;;;8.59;100.00;95885.94;5073414;28;20732;-88
2020/12/28 04:01:04;;;;;;;7.07;6.37;;;;;;;8.52;100.00;95884.91;5073163;28;20201;-88
2020/12/28 04:03:31;;;;;;;9.87;8.87;;;;;;;8.55;100.00;95888.03;5073085;28;20201;-88
2020/12/28 04:06:01;;;;;;;7.27;6.57;;;;;;;8.55;100.00;95879.34;5073509;28;20208;-88
2020/12/28 04:08:28;;;;;;;8.80;7.73;;;;;;;8.56;100.00;95873.97;5073357;28;20688;-88
2020/12/28 04:10:55;;;;;;;6.43;5.77;;;;;;;8.52;100.00;95864.78;5073006;28;20232;-87
2020/12/28 04:13:22;;;;;;;4.83;4.17;;;;;;;8.54;100.00;95867.25;5072873;28;20243;-88
2020/12/28 04:15:49;;;;;;;5.83;4.70;;;;;;;8.52;100.00;95869.19;5072912;28;20220;-88
2020/12/28 04:18:15;;;;;;;5.83;5.23;;;;;;;8.55;100.00;95874.13;5072840;28;20258;-87
2020/12/28 04:20:42;;;;;;;6.97;6.27;;;;;;;8.55;100.00;95871.50;5072823;28;20287;-88
2020/12/28 04:23:10;;;;;;;4.87;4.47;;;;;;;8.56;100.00;95860.06;5073146;28;20201;-87
2020/12/28 04:25:37;;;;;;;6.40;5.00;;;;;;;8.53;100.00;95857.75;5072634;28;20235;-87
2020/12/28 04:28:04;;;;;;;8.27;5.17;;;;;;;8.51;100.00;95863.13;5073025;28;20228;-87
2020/12/28 04:30:31;;;;;;;5.30;4.80;;;;;;;8.50;100.00;95848.41;5072976;28;20335;-88
2020/12/28 04:32:58;;;;;;;10.00;8.43;;;;;;;8.50;100.00;95858.88;5072700;28;20197;-87
2020/12/28 04:35:24;;;;;;;6.47;5.87;;;;;;;8.51;100.00;95844.78;5073053;28;20227;-87
2020/12/28 04:37:51;;;;;;;8.07;5.27;;;;;;;8.50;100.00;95874.59;5072692;28;20240;-89
2020/12/28 04:40:20;;;;;;;4.90;4.50;;;;;;;8.47;100.00;95868.84;5072704;28;20235;-87
2020/12/28 04:42:46;;;;;;;5.63;4.70;;;;;;;8.48;100.00;95875.72;5072954;28;20329;-87
2020/12/28 04:45:13;;;;;;;6.77;4.10;;;;;;;8.49;100.00;95890.47;5073018;28;20196;-88
2020/12/28 04:47:40;;;;;;;6.33;5.70;;;;;;;8.48;100.00;95894.88;5072441;28;20286;-88
2020/12/28 04:50:07;;;;;;;8.80;7.97;;;;;;;8.53;100.00;95904.91;5072653;28;20237;-88
2020/12/28 04:52:35;;;;;;;8.93;4.50;;;;;;;8.51;100.00;95909.44;5072779;28;20236;-87
2020/12/28 04:55:02;;;;;;;6.13;5.53;;;;;;;8.50;100.00;95913.06;5072372;28;20221;-87
2020/12/28 04:57:30;;;;;;;10.43;6.40;;;;;;;8.50;100.00;95918.28;5072303;28;20235;-87
2020/12/28 04:59:57;;;;;;;11.70;7.03;;;;;;;8.43;100.00;95920.72;5072483;28;20239;-87
2020/12/28 05:02:25;;;;;;;7.43;5.67;;;;;;;8.40;100.00;95920.19;5072382;28;20200;-87
2020/12/28 05:04:52;;;;;;;4.73;4.33;;;;;;;8.35;100.00;95918.00;5075196;28;20283;-87
2020/12/28 05:07:19;;;;;;;4.93;4.07;;;;;;;8.36;100.00;95916.22;5076391;28;20204;-88
2020/12/28 05:09:45;;;;;;;6.47;5.10;;;;;;;8.37;100.00;95915.22;5076471;28;20193;-87
2020/12/28 05:12:13;;;;;;;7.27;5.23;;;;;;;8.34;100.00;95916.34;5076122;28;20192;-87
2020/12/28 05:14:40;;;;;;;8.20;7.40;;;;;;;8.33;100.00;95919.94;5076420;28;20670;-88
2020/12/28 05:17:09;;;;;;;5.43;4.90;;;;;;;8.36;100.00;95937.16;5076127;28;20204;-87
2020/12/28 05:19:37;;;;;;;6.03;5.43;;;;;;;8.33;100.00;95939.09;5076416;28;20290;-87
2020/12/28 05:22:04;;;;;;;4.63;4.20;;;;;;;8.36;100.00;95945.03;5076155;28;20197;-87
2020/12/28 05:24:31;;;;;;;7.97;6.60;;;;;;;8.34;100.00;95935.50;5076108;28;20200;-87
2020/12/28 05:26:59;;;;;;;10.63;9.40;;;;;;;8.38;100.00;95936.03;5075793;28;20228;-88
2020/12/28 05:29:28;;;;;;;9.53;7.70;;;;;;;8.37;100.00;95936.19;5076128;28;20658;-87
2020/12/28 05:31:56;;;;;;;6.27;5.20;;;;;;;8.32;100.00;95936.66;5075934;28;20231;-87
2020/12/28 05:34:25;;;;;;;13.37;8.50;;;;;;;8.39;100.00;95942.94;5075909;28;20260;-87
2020/12/28 05:36:54;;;;;;;14.43;12.93;;;;;;;8.42;100.00;95947.06;5075932;28;20704;-87
2020/12/28 05:39:22;;;;;;;16.97;12.67;;;;;;;8.39;100.00;95944.75;5075610;28;20193;-87
2020/12/28 05:41:57;;;;;;;54.57;39.57;;;;;;;8.40;100.00;95960.28;5075736;28;20258;-87
2020/12/28 05:44:25;;;;;;;42.10;35.40;;;;;;;8.40;100.00;95949.00;5075513;28;20223;-87
2020/12/28 05:47:02;;;;;;;23.80;18.47;;;;;;;8.41;100.00;95937.53;5075691;28;20255;-87
2020/12/28 05:49:36;;;;;;;21.13;17.13;;;;;;;8.39;100.00;95936.88;5075712;28;20200;-88
2020/12/28 05:52:05;;;;;;;10.03;8.30;;;;;;;8.39;100.00;95942.94;5075618;28;20185;-87
2020/12/28 05:54:33;;;;;;;11.00;8.63;;;;;;;8.38;100.00;95930.81;5075388;28;20268;-88
2020/12/28 05:57:00;;;;;;;176.57;28.87;;;;;;;8.40;100.00;95918.41;5075595;28;20233;-87
2020/12/28 05:59:27;;;;;;;235.93;36.30;;;;;;;8.35;100.00;95910.16;5075283;28;20229;-87
2020/12/28 06:01:54;;;;;;;175.20;27.13;;;;;;;8.34;100.00;95927.63;5075451;28;20204;-88
2020/12/28 06:04:22;;;;;;;67.97;13.10;;;;;;;8.36;100.00;95916.22;5075718;28;20251;-88
2020/12/28 06:06:49;;;;;;;165.30;27.70;;;;;;;8.34;100.00;95918.97;5055703;28;20228;-87
2020/12/28 06:09:17;;;;;;;237.03;33.80;;;;;;;8.31;100.00;95927.97;5055565;28;20205;-87
2020/12/28 06:11:43;;;;;;;239.13;23.60;;;;;;;8.32;100.00;95947.13;5055335;28;20201;-88
2020/12/28 06:14:18;;;;;;;160.90;23.47;;;;;;;8.28;100.00;95941.38;5054895;28;20325;-87
2020/12/28 06:16:45;;;;;;;337.33;32.17;;;;;;;8.25;100.00;95944.28;5054242;28;20193;-87
2020/12/28 06:19:25;;;;;;;219.47;34.00;;;;;;;8.30;100.00;95955.09;5055029;28;20663;-88
2020/12/28 06:21:52;;;;;;;255.50;39.87;;;;;;;8.27;100.00;95954.59;5054880;28;20181;-88
2020/12/28 06:24:26;;;;;;;230.90;42.87;;;;;;;8.30;100.00;95957.72;5054731;28;20285;-87
2020/12/28 06:27:04;;;;;;;188.70;16.63;;;;;;;8.26;100.00;95952.97;5054803;28;20609;-88
2020/12/28 06:29:31;;;;;;;235.80;30.23;;;;;;;8.26;100.00;95959.00;5055062;28;20272;-88
2020/12/28 06:31:58;;;;;;;205.33;29.33;;;;;;;8.27;100.00;95955.41;5054848;28;20237;-88
2020/12/28 06:34:26;;;;;;;179.73;30.03;;;;;;;8.31;100.00;95961.16;5055357;28;20225;-88
2020/12/28 06:37:40;;;;;;;201.00;33.77;;;;;;;8.30;100.00;95959.53;5055332;28;20671;-89
2020/12/28 06:40:07;;;;;;;6.23;5.57;;;;;;;8.31;100.00;95954.16;5054856;28;20678;-87
2020/12/28 06:42:34;;;;;;;7.77;5.57;;;;;;;8.31;100.00;95956.78;5054876;28;20220;-86
2020/12/28 06:45:15;;;;;;;47.50;10.47;;;;;;;8.30;100.00;95955.09;5054467;28;20197;-87
2020/12/28 06:47:43;;;;;;;6.27;5.73;;;;;;;8.37;100.00;95964.97;5054367;28;20666;-89
2020/12/28 06:50:11;;;;;;;8.13;6.40;;;;;;;8.39;100.00;95965.69;5054843;28;20237;-87
2020/12/28 06:52:38;;;;;;;8.70;7.80;;;;;;;8.42;100.00;95973.25;5054402;28;20734;-86
2020/12/28 06:55:11;;;;;;;11.17;7.60;;;;;;;8.38;100.00;95977.94;5054816;28;20291;-88
2020/12/28 06:57:39;;;;;;;13.30;9.50;;;;;;;8.40;100.00;95972.56;5054718;28;20231;-88
2020/12/28 07:00:07;;;;;;;21.00;12.87;;;;;;;8.39;100.00;95966.50;5054454;28;20194;-89
2020/12/28 07:02:35;;;;;;;12.90;7.90;;;;;;;8.40;100.00;95969.94;5054906;28;20197;-88
2020/12/28 07:05:03;;;;;;;8.27;5.90;;;;;;;8.42;100.00;95975.88;5055068;28;20194;-88
2020/12/28 07:07:41;;;;;;;8.10;7.40;;;;;;;8.42;100.00;95968.84;5054239;28;20592;-88
2020/12/28 07:10:08;;;;;;;12.50;7.40;;;;;;;8.46;100.00;95980.63;5054477;28;20591;-87
2020/12/28 07:12:35;;;;;;;11.70;6.47;;;;;;;8.48;100.00;95977.84;5054959;28;20197;-86
2020/12/28 07:15:04;;;;;;;9.93;7.20;;;;;;;8.47;100.00;95970.97;5054247;28;20222;-87
2020/12/28 07:17:31;;;;;;;8.63;7.63;;;;;;;8.48;100.00;95975.25;5054249;28;20210;-87
2020/12/28 07:20:03;;;;;;;8.13;7.33;;;;;;;8.47;100.00;95976.22;5053832;28;20263;-87
2020/12/28 07:22:34;;;;;;;11.97;10.30;;;;;;;8.51;100.00;95982.78;5054060;28;20205;-88
2020/12/28 07:25:02;;;;;;;10.80;8.93;;;;;;;8.48;100.00;95978.69;5054238;28;20775;-88
2020/12/28 07:27:29;;;;;;;12.07;9.03;;;;;;;8.52;100.00;95979.19;5054084;28;20610;-87
2020/12/28 07:29:56;;;;;;;10.13;7.70;;;;;;;8.57;100.00;95971.72;5054118;28;20194;-87
2020/12/28 07:32:23;;;;;;;11.03;9.73;;;;;;;8.64;100.00;95996.31;5053578;28;20289;-87
2020/12/28 07:34:54;;;;;;;11.27;8.73;;;;;;;8.64;100.00;96001.56;5053990;28;20221;-88
2020/12/28 07:37:22;;;;;;;8.50;7.40;;;;;;;8.69;100.00;96007.16;5053956;28;20201;-87
2020/12/28 07:39:50;;;;;;;9.70;8.70;;;;;;;8.67;100.00;96003.06;5053627;28;20236;-90
2020/12/28 07:42:22;;;;;;;16.17;12.93;;;;;;;8.67;100.00;95997.81;5054057;28;20201;-91
2020/12/28 07:44:57;;;;;;;16.13;11.90;;;;;;;8.69;100.00;95991.44;5054931;28;20229;-90
2020/12/28 07:47:35;;;;;;;14.77;12.73;;;;;;;8.62;100.00;95998.25;5059868;28;20198;-90
2020/12/28 07:50:04;;;;;;;16.17;10.37;;;;;;;8.67;100.00;95998.63;5053620;28;20197;-92
2020/12/28 07:52:35;;;;;;;13.30;9.00;;;;;;;8.66;100.00;95997.00;5053601;28;20231;-90
2020/12/28 07:55:07;;;;;;;18.43;14.93;;;;;;;8.65;100.00;96005.81;5053885;28;20610;-91
2020/12/28 07:57:53;;;;;;;10.80;9.03;;;;;;;8.73;100.00;96020.78;5053957;28;20225;-91
2020/12/28 08:00:25;;;;;;;17.53;15.77;;;;;;;8.68;100.00;95995.03;5053435;28;20284;-90
2020/12/28 08:03:17;;;;;;;13.67;12.03;;;;;;;8.70;100.00;96000.94;5053321;28;20182;-91
2020/12/28 08:05:45;;;;;;;14.70;10.83;;;;;;;8.76;100.00;96002.13;5053356;28;20182;-90
2020/12/28 08:08:25;;;;;;;8.63;7.83;;;;;;;8.83;100.00;96003.16;5053381;28;20227;-90
2020/12/28 08:10:55;;;;;;;6.60;5.97;;;;;;;8.90;100.00;95998.13;5053206;28;20212;-91
2020/12/28 08:13:25;;;;;;;11.13;9.43;;;;;;;9.09;100.00;96008.38;5053178;28;20198;-91
2020/12/28 08:15:54;;;;;;;19.03;12.17;;;;;;;9.12;100.00;96008.09;5053253;28;20221;-91
2020/12/28 08:18:22;;;;;;;16.27;12.53;;;;;;;9.14;100.00;95995.63;5053022;28;20193;-91
2020/12/28 08:20:58;;;;;;;14.47;11.83;;;;;;;9.27;100.00;95985.53;5054009;28;20219;-90
2020/12/28 08:23:27;;;;;;;23.60;15.50;;;;;;;9.55;100.00;95981.88;5053413;28;20201;-90
2020/12/28 08:25:54;;;;;;;12.13;9.73;;;;;;;9.82;100.00;95991.31;5052758;28;20241;-91
2020/12/28 08:28:22;;;;;;;13.97;9.70;;;;;;;9.80;100.00;95990.63;5052618;28;20202;-90
2020/12/28 08:30:52;;;;;;;9.77;7.47;;;;;;;9.81;100.00;95989.66;5052786;28;20241;-90
2020/12/28 08:33:20;;;;;;;18.93;13.17;;;;;;;9.75;100.00;95984.06;5050083;28;20201;-90
2020/12/28 08:35:50;;;;;;;12.83;10.30;;;;;;;9.73;100.00;95977.31;5053554;28;20225;-91
2020/12/28 08:38:17;;;;;;;26.90;19.70;;;;;;;9.79;100.00;95981.13;5052656;28;20187;-90
2020/12/28 08:40:55;;;;;;;48.30;31.70;;;;;;;9.72;100.00;95991.44;5053185;28;20241;-91
2020/12/28 08:43:23;;;;;;;41.17;32.20;;;;;;;9.61;100.00;95989.94;5053280;28;20193;-90
2020/12/28 08:46:00;;;;;;;27.13;24.33;;;;;;;9.75;100.00;95996.38;5052971;28;20198;-90
2020/12/28 08:48:27;;;;;;;20.70;16.83;;;;;;;9.68;100.00;95998.00;5053075;28;20186;-90
2020/12/28 08:50:54;;;;;;;25.93;21.00;;;;;;;9.63;100.00;95997.63;5053091;28;20189;-91
2020/12/28 08:53:22;;;;;;;17.77;15.03;;;;;;;9.55;100.00;96000.22;5053551;28;20198;-90
2020/12/28 08:56:02;;;;;;;18.33;14.87;;;;;;;9.55;100.00;95993.19;5052624;28;20218;-90
2020/12/28 08:58:30;;;;;;;11.97;7.30;;;;;;;9.53;100.00;95995.97;5052942;28;20582;-90
2020/12/28 09:00:56;;;;;;;6.17;4.93;;;;;;;9.56;100.00;95994.00;5052842;28;20275;-90
2020/12/28 09:03:23;;;;;;;10.83;9.73;;;;;;;9.58;100.00;95995.50;5057625;28;20661;-89
2020/12/28 09:05:50;;;;;;;8.20;7.13;;;;;;;9.56;100.00;96001.88;5072831;28;20197;-89
2020/12/28 09:08:17;;;;;;;7.60;6.80;;;;;;;9.55;100.00;96008.91;5072655;28;20204;-89
2020/12/28 09:10:44;;;;;;;11.13;10.03;;;;;;;9.49;100.00;96018.25;5072532;28;20229;-90
2020/12/28 09:13:10;;;;;;;11.07;9.97;;;;;;;9.60;100.00;96013.72;5072476;28;20674;-90
2020/12/28 09:15:38;;;;;;;7.93;6.70;;;;;;;9.50;100.00;96021.72;5072401;28;20225;-89
2020/12/28 09:18:05;;;;;;;7.40;6.30;;;;;;;9.44;100.00;96023.16;5072676;28;20284;-90
2020/12/28 09:20:32;;;;;;;13.30;10.00;;;;;;;9.46;100.00;96005.47;5072616;28;20223;-90
2020/12/28 09:22:59;;;;;;;8.90;7.63;;;;;;;9.41;100.00;96002.47;5072526;28;20201;-89
2020/12/28 09:25:26;;;;;;;8.27;7.40;;;;;;;9.46;100.00;96007.28;5072707;28;20323;-90
2020/12/28 09:27:52;;;;;;;8.80;7.90;;;;;;;9.55;100.00;95998.44;5072736;28;20228;-90
2020/12/28 09:30:19;;;;;;;8.00;7.17;;;;;;;9.60;100.00;96005.84;5071934;28;20193;-90
2020/12/28 09:32:47;;;;;;;7.90;6.37;;;;;;;9.64;100.00;95989.63;5052595;28;20202;-89
2020/12/28 09:35:14;;;;;;;25.90;22.30;;;;;;;9.69;100.00;95989.94;5052377;28;20218;-90
2020/12/28 09:37:41;;;;;;;13.73;12.30;;;;;;;9.70;100.00;95988.16;5052171;28;20237;-90
2020/12/28 09:40:08;;;;;;;12.07;6.10;;;;;;;9.75;100.00;95983.25;5060928;28;20205;-90
2020/12/28 09:42:35;;;;;;;5.67;5.17;;;;;;;9.73;100.00;95986.03;5052590;28;20243;-90
2020/12/28 09:45:02;;;;;;;8.37;7.60;;;;;;;9.80;100.00;95977.50;5052456;28;20281;-90
2020/12/28 09:47:28;;;;;;;10.63;7.27;;;;;;;9.74;100.00;95978.97;5052699;28;20198;-90
2020/12/28 09:49:56;;;;;;;8.00;5.17;;;;;;;9.72;100.00;95976.50;5052303;28;20202;-89
2020/12/28 09:52:23;;;;;;;18.63;16.37;;;;;;;9.68;100.00;95967.31;5055798;28;20198;-90
2020/12/28 09:54:50;;;;;;;8.33;6.20;;;;;;;9.61;100.00;95973.38;5055964;28;20674;-89
2020/12/28 09:57:17;;;;;;;7.03;6.33;;;;;;;9.66;100.00;95985.00;5055983;28;20198;-89
2020/12/28 09:59:44;;;;;;;4.60;4.07;;;;;;;9.63;100.00;96000.25;5055872;28;20202;-90
2020/12/28 10:02:11;;;;;;;8.77;5.80;;;;;;;9.58;100.00;95990.25;5055870;28;20216;-91
2020/12/28 10:04:56;;;;;;;15.87;12.07;;;;;;;9.67;100.00;95981.44;5056156;28;20667;-90
2020/12/28 10:10:09;;;;;;;8.90;5.53;;;;;;;9.68;100.00;95964.69;5027760;28;20206;-88
2020/12/28 10:12:38;;;;;;;5.90;4.60;;;;;;;9.70;100.00;95961.91;5055458;28;20210;-89
2020/12/28 10:15:06;;;;;;;8.47;5.70;;;;;;;9.76;100.00;95956.81;5055441;28;20222;-88
2020/12/28 10:17:33;;;;;;;11.77;8.73;;;;;;;9.81;100.00;95956.38;5055867;28;20569;-89
2020/12/28 10:20:00;;;;;;;5.93;4.60;;;;;;;9.76;100.00;95951.56;5055521;28;20194;-88
2020/12/28 10:22:28;;;;;;;14.30;11.27;;;;;;;9.78;100.00;95935.69;5055329;28;20277;-89
2020/12/28 10:24:55;;;;;;;20.10;14.67;;;;;;;9.92;100.00;95932.41;5055079;28;20209;-88
2020/12/28 10:27:22;;;;;;;18.03;14.93;;;;;;;9.96;100.00;95917.16;5055388;28;20659;-88
2020/12/28 10:29:49;;;;;;;21.00;18.73;;;;;;;10.02;100.00;95903.38;5055233;28;20220;-88
2020/12/28 10:32:16;;;;;;;7.33;5.83;;;;;;;10.11;100.00;95896.31;5054902;28;20209;-88
2020/12/28 10:34:42;;;;;;;7.57;6.43;;;;;;;10.21;100.00;95889.09;5054451;28;20221;-86
2020/12/28 10:37:11;;;;;;;9.53;7.37;;;;;;;10.41;100.00;95894.84;5054603;28;20209;-88
2020/12/28 10:39:39;;;;;;;5.47;4.97;;;;;;;10.52;100.00;95885.81;5054730;28;20205;-89
2020/12/28 10:42:06;;;;;;;6.60;4.20;;;;;;;10.69;100.00;95882.97;5055062;28;20285;-88
2020/12/28 10:44:33;;;;;;;6.40;3.73;;;;;;;11.72;100.00;95889.06;5054607;28;20197;-88
2020/12/28 10:47:00;;;;;;;14.03;8.10;;;;;;;12.07;100.00;95885.88;5054489;28;20194;-88
2020/12/28 10:49:27;;;;;;;8.13;5.93;;;;;;;11.39;100.00;95862.94;5054508;28;20201;-87
2020/12/28 10:51:54;;;;;;;6.90;4.93;;;;;;;11.18;100.00;95863.53;5054253;28;20194;-88
2020/12/28 10:54:21;;;;;;;11.60;8.73;;;;;;;10.78;100.00;95852.22;5054427;28;20221;-88
2020/12/28 10:56:49;;;;;;;7.47;5.10;;;;;;;10.73;100.00;95846.63;5054590;28;20201;-88
2020/12/28 10:59:16;;;;;;;6.07;4.90;;;;;;;10.78;100.00;95836.44;5054857;28;20201;-88
2020/12/28 11:01:42;;;;;;;10.97;9.47;;;;;;;10.70;100.00;95823.31;5053850;28;20205;-88
2020/12/28 11:04:09;;;;;;;18.13;15.53;;;;;;;10.58;100.00;95817.63;5061052;28;20236;-89
2020/12/28 11:06:41;;;;;;;18.27;16.37;;;;;;;10.49;100.00;95818.63;5059321;28;20209;-88
2020/12/28 11:09:08;;;;;;;8.43;7.13;;;;;;;10.52;100.00;95818.28;5054547;28;20583;-88
2020/12/28 11:11:35;;;;;;;6.80;4.67;;;;;;;10.49;100.00;95813.38;5054188;28;20190;-87
2020/12/28 11:14:03;;;;;;;9.90;7.33;;;;;;;10.51;100.00;95810.59;5053554;28;20189;-87
2020/12/28 11:16:30;;;;;;;6.37;5.30;;;;;;;10.54;100.00;95811.06;5053958;28;20205;-87
2020/12/28 11:18:57;;;;;;;10.10;7.10;;;;;;;10.91;100.00;95815.69;5053640;28;20201;-87
2020/12/28 11:21:24;;;;;;;7.83;4.87;;;;;;;11.42;100.00;95807.34;5053666;28;20201;-87
2020/12/28 11:24:01;;;;;;;6.37;5.67;;;;;;;12.11;100.00;95794.13;5053855;28;20293;-87
2020/12/28 11:26:28;;;;;;;6.10;4.70;;;;;;;11.39;100.00;95773.47;5053199;28;20234;-87
2020/12/28 11:28:55;;;;;;;6.60;5.97;;;;;;;11.09;100.00;95776.00;5053468;28;20263;-87
2020/12/28 11:31:23;;;;;;;10.80;8.80;;;;;;;11.14;100.00;95768.38;5053311;28;20386;-87